Time;durP1;ratioP1;P1;durP2;ratioP2;P2;SDS_P1;SDS_P2;PMS_P1;PMS_P2;Temp;Humidity;BMP_temperature;BMP_pressure;BME280_temperature;BME280_humidity;BME280_pressure;Samples;Min_cycle;Max_cycle;Signal;HPM_P1;HPM_P2
2022/03/21 11:34:02;;;;;;;21.73;11.97;;;16.70;41.00;;;;;;5160862;22;25365677;-83
2022/03/21 11:40:35;;;;;;;22.65;11.52;;;17.00;41.70;;;;;;6252367;22;20020;-84
2022/03/21 11:43:21;;;;;;;21.13;11.57;;;16.80;41.40;;;;;;6247697;22;20396;-79
2022/03/21 11:46:29;;;;;;;21.33;11.02;;;17.00;41.10;;;;;;6240639;22;20009;-79
2022/03/21 11:49:01;;;;;;;28.20;12.15;;;17.30;39.70;;;;;;6230669;22;20456;-78
2022/03/21 11:51:38;;;;;;;21.63;11.25;;;17.30;41.30;;;;;;6249946;22;20024;-79
2022/03/21 11:54:27;;;;;;;23.38;11.27;;;17.10;41.80;;;;;;6248717;22;20025;-79
2022/03/21 11:57:26;;;;;;;23.00;12.18;;;17.40;41.90;;;;;;6250145;22;20025;-85
2022/03/21 12:00:28;;;;;;;27.00;11.57;;;17.40;38.70;;;;;;6249681;22;20045;-87
2022/03/21 12:03:24;;;;;;;32.40;12.10;;;16.70;40.40;;;;;;6122356;23;20365;-89
2022/03/21 12:05:51;;;;;;;16.73;11.40;;;16.30;41.00;;;;;;6185896;23;20021;-87
2022/03/21 12:09:19;;;;;;;24.17;11.93;;;16.60;41.30;;;;;;6187848;23;20237;-89
2022/03/21 12:12:01;;;;;;;24.35;12.07;;;16.60;41.10;;;;;;6071056;23;20038;-82
2022/03/21 12:14:45;;;;;;;23.98;11.77;;;16.60;42.40;;;;;;6077351;23;20029;-82
2022/03/21 12:17:35;;;;;;;19.08;11.05;;;16.60;41.20;;;;;;6097263;23;20031;-83
2022/03/21 12:20:18;;;;;;;20.65;11.43;;;16.60;43.20;;;;;;6090701;23;20118;-82
2022/03/21 12:23:30;;;;;;;20.38;11.75;;;16.80;42.60;;;;;;6139050;23;20057;-83
2022/03/21 12:26:37;;;;;;;24.52;11.68;;;16.80;41.90;;;;;;6153878;23;20013;-83
2022/03/21 12:29:37;;;;;;;18.10;11.38;;;16.50;43.30;;;;;;6161961;23;20030;-83
2022/03/21 12:32:26;;;;;;;22.08;12.05;;;16.40;42.70;;;;;;6186369;23;20026;-83
2022/03/21 12:35:23;;;;;;;20.40;11.90;;;16.80;42.40;;;;;;6241892;22;20016;-83
2022/03/21 12:38:23;;;;;;;26.20;12.70;;;17.00;43.20;;;;;;6158084;23;20026;-83
2022/03/21 12:41:03;;;;;;;21.85;12.85;;;16.90;43.60;;;;;;6145901;23;20022;-79
2022/03/21 12:43:55;;;;;;;24.20;12.38;;;17.20;42.10;;;;;;6152982;23;20061;-78
2022/03/21 12:46:33;;;;;;;25.88;11.57;;;17.10;44.30;;;;;;6149403;23;20026;-81
2022/03/21 12:49:10;;;;;;;25.35;12.70;;;17.20;44.70;;;;;;6131423;23;20036;-81
2022/03/21 12:51:37;;;;;;;21.70;12.90;;;17.60;43.40;;;;;;6157318;23;20018;-80
2022/03/21 12:54:21;;;;;;;18.15;11.52;;;17.70;43.80;;;;;;6136266;23;20030;-81
2022/03/21 12:57:16;;;;;;;22.35;11.27;;;17.60;41.50;;;;;;6082108;23;20014;-81
2022/03/21 13:00:27;;;;;;;24.60;12.48;;;17.60;45.40;;;;;;6159138;23;20073;-81
2022/03/21 13:02:56;;;;;;;25.08;11.57;;;17.70;44.90;;;;;;6159068;23;20022;-81
2022/03/21 13:11:48;;;;;;;22.20;12.40;;;18.00;42.60;;;;;;6159336;23;20050;-81
2022/03/21 13:14:50;;;;;;;23.83;12.57;;;18.00;42.40;;;;;;6075774;23;20018;-80
2022/03/21 13:17:43;;;;;;;27.08;13.25;;;17.80;42.70;;;;;;6156776;23;20021;-80
2022/03/21 13:23:35;;;;;;;27.42;13.10;;;17.90;42.90;;;;;;6040387;23;20024;-80
2022/03/21 13:26:35;;;;;;;21.35;12.00;;;17.80;42.70;;;;;;6044646;23;20024;-81
2022/03/21 13:29:11;;;;;;;26.70;12.60;;;17.60;43.00;;;;;;6046337;23;20034;-81
2022/03/21 13:31:39;;;;;;;22.38;13.20;;;17.60;43.20;;;;;;6050835;23;20047;-82
2022/03/21 13:34:11;;;;;;;22.42;12.65;;;17.60;42.90;;;;;;6049559;23;20084;-81
2022/03/21 13:36:52;;;;;;;25.47;13.20;;;17.50;43.50;;;;;;6042859;23;20023;-81
2022/03/21 13:39:51;;;;;;;;;;;;;;;;;;;;;
2022/03/21 13:42:38;;;;;;;22.73;12.23;;;17.50;44.40;;;;;;6041871;23;20471;-81
2022/03/21 13:46:00;;;;;;;23.80;13.70;;;17.40;43.80;;;;;;6088203;23;20018;-82
2022/03/21 13:51:44;;;;;;;19.95;12.27;;;17.50;43.50;;;;;;6159433;23;20010;-82
2022/03/21 13:54:20;;;;;;;20.65;13.35;;;17.50;45.70;;;;;;6179726;22;20056;-82
2022/03/21 13:57:09;;;;;;;24.95;13.70;;;17.70;44.50;;;;;;6251490;22;20024;-82
2022/03/21 14:00:04;;;;;;;20.88;13.38;;;17.70;43.40;;;;;;6249648;22;20013;-82
2022/03/21 14:02:45;;;;;;;23.70;13.50;;;17.70;44.00;;;;;;6250729;22;20032;-81
2022/03/21 14:13:16;;;;;;;24.33;13.43;;;17.50;44.20;;;;;;6258227;22;20017;-82
2022/03/21 14:16:16;;;;;;;19.53;12.87;;;17.50;43.60;;;;;;6255650;22;20029;-83
2022/03/21 14:19:15;;;;;;;22.05;12.57;;;17.50;44.80;;;;;;6248504;22;20017;-83
2022/03/21 14:21:55;;;;;;;22.52;13.70;;;17.70;44.40;;;;;;6249316;22;20031;-81
2022/03/21 14:24:22;;;;;;;28.00;13.18;;;18.00;45.50;;;;;;6249345;22;20322;-84
2022/03/21 14:26:50;;;;;;;24.70;13.73;;;17.90;44.50;;;;;;6254196;22;20037;-81
2022/03/21 14:29:26;;;;;;;25.88;13.82;;;18.00;44.50;;;;;;6252234;22;20020;-81
2022/03/21 14:35:16;;;;;;;24.05;14.05;;;17.70;44.50;;;;;;6194275;23;20006;-83
2022/03/21 14:37:51;;;;;;;22.58;13.90;;;17.80;43.00;;;;;;6191941;23;20104;-83
2022/03/21 14:40:49;;;;;;;20.83;13.38;;;17.50;43.50;;;;;;6194780;23;20021;-83
2022/03/21 14:43:18;;;;;;;29.38;13.57;;;17.80;44.00;;;;;;6171249;23;20112;-83
2022/03/21 14:49:31;;;;;;;21.67;12.95;;;17.90;43.50;;;;;;6073651;23;20031;-84
2022/03/21 14:52:10;;;;;;;24.52;13.75;;;17.90;44.30;;;;;;6070738;23;20027;-85
2022/03/21 14:54:58;;;;;;;24.60;14.55;;;17.90;44.40;;;;;;6047121;23;20091;-84
2022/03/21 14:57:34;;;;;;;29.85;14.70;;;18.10;44.40;;;;;;6073558;23;20031;-85
2022/03/21 15:00:26;;;;;;;30.02;14.55;;;18.20;44.10;;;;;;6073542;23;20331;-84
2022/03/21 15:03:14;;;;;;;24.42;14.50;;;18.20;44.60;;;;;;6075640;23;20026;-85
2022/03/21 15:05:58;;;;;;;28.30;15.05;;;18.10;43.50;;;;;;6085389;23;20022;-85
2022/03/21 15:08:56;;;;;;;29.83;15.02;;;18.20;42.90;;;;;;6157758;23;20030;-85
2022/03/21 15:12:00;;;;;;;31.27;15.43;;;18.50;43.80;;;;;;6134062;23;20117;-85
2022/03/21 15:14:49;;;;;;;26.48;14.55;;;18.60;42.10;;;;;;6147236;23;20057;-85
2022/03/21 15:17:23;;;;;;;25.88;14.65;;;18.40;42.00;;;;;;6135812;23;20085;-84
2022/03/21 15:20:06;;;;;;;31.00;14.67;;;18.20;44.40;;;;;;6162250;23;20053;-85
2022/03/21 15:22:38;;;;;;;24.17;14.57;;;18.70;43.70;;;;;;6160669;23;20548;-86
2022/03/21 15:25:25;;;;;;;26.67;13.98;;;18.80;43.30;;;;;;6158751;23;20033;-85
2022/03/21 15:28:15;;;;;;;32.78;14.60;;;19.10;42.00;;;;;;6250236;22;20456;-85
2022/03/21 15:30:47;;;;;;;28.40;15.77;;;19.00;41.70;;;;;;6250743;22;20020;-85
2022/03/21 15:33:28;;;;;;;197.90;23.98;;;19.00;40.80;;;;;;6248958;22;20032;-85
2022/03/21 15:41:53;;;;;;;24.05;14.35;;;19.00;42.10;;;;;;6250948;22;20459;-86
2022/03/21 15:44:25;;;;;;;415.55;34.80;;;19.20;40.10;;;;;;6228127;22;20028;-84
2022/03/21 15:47:29;;;;;;;;;;;;;;;;;;;;;
2022/03/21 15:50:36;;;;;;;33.15;15.93;;;19.40;41.00;;;;;;6257516;22;20017;-84
2022/03/21 15:53:14;;;;;;;41.45;15.05;;;19.80;41.80;;;;;;6262660;22;20016;-86
2022/03/21 15:55:58;;;;;;;256.65;26.85;;;20.00;41.60;;;;;;6217368;22;20043;-85
2022/03/21 15:59:00;;;;;;;27.92;15.60;;;20.10;42.70;;;;;;6255139;22;20664;-85
2022/03/21 16:01:54;;;;;;;35.58;15.77;;;20.10;41.50;;;;;;6255234;22;20024;-83
2022/03/21 16:04:44;;;;;;;35.88;14.45;;;20.30;38.80;;;;;;6131173;23;20026;-83
2022/03/21 16:08:01;;;;;;;27.20;14.98;;;19.80;40.80;;;;;;6128547;23;20442;-87
2022/03/21 16:11:33;;;;;;;31.70;15.02;;;20.00;40.50;;;;;;6130005;23;20022;-81
2022/03/21 16:14:08;;;;;;;31.42;15.73;;;20.00;41.60;;;;;;6097348;23;20077;-82
2022/03/21 16:16:43;;;;;;;32.00;15.52;;;19.80;39.20;;;;;;6102069;23;20023;-80
2022/03/21 16:19:16;;;;;;;;;;;19.40;40.90;;;;;;6101379;23;20097;-81
2022/03/21 16:21:43;;;;;;;32.10;16.63;;;19.50;40.50;;;;;;6102831;23;19951;-80
2022/03/21 16:24:32;;;;;;;29.85;16.05;;;19.20;40.90;;;;;;6057381;23;20007;-82
2022/03/21 16:27:13;;;;;;;26.35;16.02;;;19.10;40.20;;;;;;6113011;23;20078;-81
2022/03/21 16:29:43;;;;;;;26.30;15.98;;;18.90;41.40;;;;;;6133733;23;20829;-82
2022/03/21 16:32:16;;;;;;;32.30;16.05;;;18.80;41.70;;;;;;6135176;23;20031;-81
2022/03/21 16:34:44;;;;;;;26.27;15.50;;;18.60;41.50;;;;;;6129407;23;20030;-80
2022/03/21 16:37:28;;;;;;;32.72;16.33;;;18.60;41.70;;;;;;6103547;23;20026;-82
2022/03/21 16:40:10;;;;;;;32.28;16.35;;;18.60;42.50;;;;;;6041535;23;20031;-78
2022/03/21 16:42:37;;;;;;;34.13;16.95;;;18.50;42.10;;;;;;6185325;23;20606;-80
2022/03/21 16:45:13;;;;;;;32.20;16.45;;;18.20;43.10;;;;;;6160167;23;20081;-81
2022/03/21 16:47:58;;;;;;;32.70;16.95;;;18.10;42.80;;;;;;6186040;23;20029;-73
2022/03/21 16:50:39;;;;;;;32.28;17.42;;;18.10;43.70;;;;;;6172752;23;20129;-80
2022/03/21 16:53:41;;;;;;;34.65;16.38;;;18.30;43.60;;;;;;6161756;23;20088;-80
2022/03/21 16:56:42;;;;;;;35.38;16.77;;;18.20;43.00;;;;;;6065989;23;20106;-81
2022/03/21 16:59:31;;;;;;;32.15;17.13;;;17.80;43.10;;;;;;6066215;23;20115;-80
2022/03/21 17:01:58;;;;;;;32.22;17.40;;;17.50;45.00;;;;;;6066177;23;20038;-81
2022/03/21 17:04:49;;;;;;;30.77;17.77;;;17.70;45.00;;;;;;6067268;23;20027;-81
2022/03/21 17:08:10;;;;;;;33.90;17.98;;;17.70;44.90;;;;;;6042758;23;20083;-81
2022/03/21 17:10:40;;;;;;;33.00;16.92;;;17.60;44.20;;;;;;5979862;23;20032;-81
2022/03/21 17:13:45;;;;;;;39.40;17.17;;;17.60;45.20;;;;;;6038017;23;20031;-80
2022/03/21 17:16:15;;;;;;;32.10;17.02;;;17.60;44.30;;;;;;6038097;23;20032;-80
2022/03/21 17:24:30;;;;;;;29.27;16.92;;;17.30;45.10;;;;;;6004796;23;20469;-81
2022/03/21 17:27:11;;;;;;;28.98;17.13;;;17.00;45.40;;;;;;6006412;23;20028;-81
2022/03/21 17:29:51;;;;;;;30.38;17.50;;;16.80;45.60;;;;;;6028876;23;20023;-82
2022/03/21 17:32:18;;;;;;;33.00;17.63;;;16.60;45.70;;;;;;6059750;23;20150;-81
2022/03/21 17:34:55;;;;;;;31.27;17.55;;;16.40;46.10;;;;;;6062895;23;20031;-79
2022/03/21 17:37:23;;;;;;;31.90;17.05;;;16.10;46.50;;;;;;6066081;23;20682;-80
2022/03/21 17:39:53;;;;;;;30.95;17.15;;;15.90;46.80;;;;;;6079235;23;20462;-80
2022/03/21 17:42:23;;;;;;;31.08;17.30;;;15.90;46.80;;;;;;6070960;23;20027;-80
2022/03/21 17:44:55;;;;;;;27.95;17.00;;;15.70;47.50;;;;;;6097092;23;20031;-80
2022/03/21 17:47:24;;;;;;;30.30;16.30;;;15.50;47.70;;;;;;6095130;23;20351;-81
2022/03/21 17:49:55;;;;;;;27.92;16.23;;;15.40;47.90;;;;;;6096260;23;20034;-80
2022/03/21 17:52:38;;;;;;;39.40;17.27;;;15.30;47.90;;;;;;6079003;23;20055;-80
2022/03/21 17:55:22;;;;;;;;;;;;;;;;;;;;;
2022/03/21 17:58:05;;;;;;;30.65;17.77;;;14.90;49.10;;;;;;6010187;23;20088;-80
2022/03/21 18:00:47;;;;;;;35.72;17.25;;;14.70;49.60;;;;;;6124938;22;20738;-80
2022/03/21 18:03:28;;;;;;;33.78;16.63;;;14.70;49.50;;;;;;6247752;22;20025;-80
2022/03/21 18:06:13;;;;;;;32.05;18.17;;;14.60;49.30;;;;;;6243412;22;20298;-80
2022/03/21 18:09:11;;;;;;;28.83;16.77;;;14.40;49.60;;;;;;6245685;22;20268;-80
2022/03/21 18:11:54;;;;;;;38.42;16.92;;;14.30;49.80;;;;;;6124325;23;20030;-83
2022/03/21 18:17:30;;;;;;;33.22;16.50;;;13.70;52.30;;;;;;6125640;23;20100;-83
2022/03/21 18:20:00;;;;;;;30.30;16.98;;;13.50;52.90;;;;;;6132779;23;20030;-84
2022/03/21 18:22:29;;;;;;;32.95;16.27;;;13.40;52.60;;;;;;6135238;23;20034;-82
2022/03/21 18:25:09;;;;;;;28.65;16.85;;;13.30;52.40;;;;;;6133804;23;20023;-83
2022/03/21 18:28:40;;;;;;;32.47;16.60;;;13.20;52.90;;;;;;6106721;23;20034;-83
2022/03/21 18:31:54;;;;;;;28.02;15.85;;;13.10;53.30;;;;;;5986624;23;20105;-83
2022/03/21 18:34:54;;;;;;;31.52;15.80;;;12.90;54.00;;;;;;5979805;23;20468;-82
2022/03/21 18:37:35;;;;;;;31.42;16.73;;;12.70;53.90;;;;;;5975371;23;20025;-84
2022/03/21 18:40:02;;;;;;;33.97;18.80;;;12.60;53.60;;;;;;6097123;23;20114;-85
2022/03/21 18:42:39;;;;;;;29.30;15.93;;;12.50;54.30;;;;;;6124812;23;20058;-82
2022/03/21 18:45:10;;;;;;;27.98;15.80;;;12.30;55.80;;;;;;6125446;23;20659;-82
2022/03/21 18:47:41;;;;;;;26.00;15.10;;;12.00;56.40;;;;;;6143343;22;20817;-85
2022/03/21 18:50:11;;;;;;;25.80;14.48;;;11.80;56.60;;;;;;6242691;22;20100;-82
2022/03/21 18:55:50;;;;;;;23.58;14.02;;;11.40;58.10;;;;;;6250473;22;20024;-82
2022/03/21 18:58:20;;;;;;;30.45;14.50;;;10.90;58.60;;;;;;6249359;22;20071;-83
2022/03/21 19:01:08;;;;;;;28.92;14.98;;;10.70;58.80;;;;;;6223203;22;20075;-83
2022/03/21 19:03:58;;;;;;;31.02;14.32;;;10.50;60.10;;;;;;6184993;23;20026;-83
2022/03/21 19:06:28;;;;;;;36.00;14.07;;;10.30;60.00;;;;;;6185260;23;20017;-82
2022/03/21 19:09:01;;;;;;;31.90;14.95;;;10.40;59.00;;;;;;6185130;23;20036;-84
2022/03/21 19:11:33;;;;;;;29.55;15.52;;;10.20;61.20;;;;;;6162810;23;20026;-82
2022/03/21 19:14:01;;;;;;;28.60;15.80;;;10.00;60.90;;;;;;6160456;23;20088;-83
2022/03/21 19:16:30;;;;;;;26.98;15.27;;;10.10;60.90;;;;;;6134953;23;20125;-83
2022/03/21 19:18:58;;;;;;;28.13;15.00;;;10.00;59.90;;;;;;6185693;23;20716;-83
2022/03/21 19:21:29;;;;;;;26.80;14.50;;;10.00;61.00;;;;;;6159815;23;20118;-83
2022/03/21 19:24:09;;;;;;;28.83;16.08;;;9.80;61.70;;;;;;6180867;23;20025;-83
2022/03/21 19:26:46;;;;;;;35.35;15.95;;;9.60;62.10;;;;;;6187015;23;20049;-82
2022/03/21 19:29:15;;;;;;;31.38;15.00;;;9.50;62.90;;;;;;6161085;23;20827;-83
2022/03/21 19:31:44;;;;;;;29.65;14.45;;;9.40;62.60;;;;;;6184420;23;20081;-83
2022/03/21 19:34:19;;;;;;;25.25;14.85;;;9.40;63.50;;;;;;6206120;22;20032;-82
2022/03/21 19:36:50;;;;;;;26.50;14.30;;;9.20;63.30;;;;;;6249705;22;20013;-83
2022/03/21 19:39:18;;;;;;;27.38;15.75;;;9.20;63.60;;;;;;6251778;22;20031;-83
2022/03/21 19:41:47;;;;;;;28.88;16.33;;;9.00;63.90;;;;;;6225370;22;20043;-83
2022/03/21 19:44:16;;;;;;;30.15;15.68;;;8.90;64.20;;;;;;6250740;22;20092;-83
2022/03/21 19:46:53;;;;;;;28.60;15.70;;;8.90;63.00;;;;;;6251393;22;20025;-82
2022/03/21 19:49:29;;;;;;;29.52;15.50;;;8.80;62.30;;;;;;6252522;22;20823;-82
2022/03/21 19:52:04;;;;;;;34.90;15.43;;;8.70;64.40;;;;;;6251448;22;20036;-83
2022/03/21 19:54:32;;;;;;;28.65;15.73;;;8.60;64.60;;;;;;6250934;22;20029;-83
2022/03/21 19:57:03;;;;;;;25.95;16.05;;;8.50;64.70;;;;;;6248278;22;20407;-83
2022/03/21 19:59:30;;;;;;;34.35;16.90;;;8.50;64.20;;;;;;6246734;22;20024;-82
2022/03/21 20:02:18;;;;;;;29.33;15.65;;;8.30;64.50;;;;;;6256903;22;20044;-82
2022/03/21 20:04:45;;;;;;;26.67;15.20;;;8.30;63.90;;;;;;6262025;22;20020;-83
2022/03/21 20:07:31;;;;;;;33.28;17.50;;;8.30;64.00;;;;;;6260720;22;20069;-83
2022/03/21 20:10:27;;;;;;;30.60;15.48;;;8.20;64.40;;;;;;6260941;22;20009;-83
2022/03/21 20:12:56;;;;;;;30.27;16.13;;;8.10;65.20;;;;;;6250625;22;20079;-83
2022/03/21 20:15:48;;;;;;;30.67;15.25;;;8.00;64.30;;;;;;6209740;22;20032;-83
2022/03/21 20:18:15;;;;;;;24.27;14.48;;;8.00;63.70;;;;;;6247555;22;20020;-83
2022/03/21 20:20:46;;;;;;;31.20;14.23;;;8.00;64.40;;;;;;6247116;22;20024;-83
2022/03/21 20:23:23;;;;;;;30.27;15.43;;;7.90;65.60;;;;;;6239966;22;20009;-83
2022/03/21 20:25:53;;;;;;;27.63;15.02;;;7.80;64.50;;;;;;6246693;22;20102;-83
2022/03/21 20:28:24;;;;;;;26.00;15.18;;;7.80;64.00;;;;;;6247128;22;20312;-83
2022/03/21 20:30:58;;;;;;;29.13;14.77;;;7.70;66.40;;;;;;6212540;22;20107;-83
2022/03/21 20:33:35;;;;;;;25.95;14.43;;;7.70;64.90;;;;;;6242854;22;20024;-83
2022/03/21 20:36:27;;;;;;;29.10;15.82;;;7.60;64.60;;;;;;6246751;22;20016;-83
2022/03/21 20:38:56;;;;;;;23.35;14.40;;;7.60;65.00;;;;;;6246602;22;20032;-83
2022/03/21 20:41:29;;;;;;;29.85;14.93;;;7.50;65.20;;;;;;6248323;22;20932;-83
2022/03/21 20:44:01;;;;;;;26.20;15.00;;;7.50;64.60;;;;;;6247094;22;20036;-84
2022/03/21 20:47:18;;;;;;;24.65;15.65;;;7.40;63.80;;;;;;6248912;22;20170;-84
2022/03/21 20:53:18;;;;;;;31.65;16.55;;;7.30;67.20;;;;;;6129170;23;20023;-84
2022/03/21 20:55:47;;;;;;;29.58;16.00;;;7.10;68.70;;;;;;6131247;23;20030;-83
2022/03/21 20:58:27;;;;;;;30.27;16.35;;;7.00;68.60;;;;;;6104980;23;20030;-84
2022/03/21 21:01:03;;;;;;;28.60;14.27;;;6.90;69.10;;;;;;6128545;23;20019;-83
2022/03/21 21:03:35;;;;;;;29.13;13.85;;;6.90;67.80;;;;;;6127471;23;20046;-83
2022/03/21 21:06:31;;;;;;;32.42;16.05;;;6.90;66.80;;;;;;6128316;23;20030;-84
2022/03/21 21:09:03;;;;;;;30.88;15.80;;;6.80;66.10;;;;;;6108299;23;20117;-84
2022/03/21 21:11:39;;;;;;;26.85;15.82;;;6.80;66.80;;;;;;6125871;23;20041;-83
2022/03/21 21:14:16;;;;;;;43.30;16.92;;;6.70;66.40;;;;;;6127505;23;20465;-84
2022/03/21 21:16:55;;;;;;;31.17;17.33;;;6.80;66.20;;;;;;6082669;23;20050;-83
2022/03/21 21:19:40;;;;;;;30.38;16.73;;;6.70;66.10;;;;;;6124288;23;20121;-83
2022/03/21 21:22:08;;;;;;;29.85;16.27;;;6.70;67.30;;;;;;6127704;23;20829;-83
2022/03/21 21:24:41;;;;;;;33.22;16.42;;;6.70;68.60;;;;;;6129078;23;20100;-83
2022/03/21 21:27:10;;;;;;;30.90;16.27;;;6.60;68.70;;;;;;6234364;22;20071;-83
2022/03/21 21:29:39;;;;;;;29.23;16.52;;;6.60;69.50;;;;;;6249757;22;20015;-83
2022/03/21 21:32:30;;;;;;;27.02;15.82;;;6.50;70.30;;;;;;6253063;22;20028;-83
2022/03/21 21:35:08;;;;;;;26.50;15.38;;;6.50;71.10;;;;;;6253604;22;20348;-84
2022/03/21 21:37:40;;;;;;;28.77;15.60;;;6.40;70.40;;;;;;6250072;22;20080;-83
2022/03/21 21:40:28;;;;;;;27.50;16.25;;;6.40;70.50;;;;;;6258359;22;20048;-84
2022/03/21 21:43:10;;;;;;;26.48;14.85;;;6.30;70.60;;;;;;6250595;22;20021;-84
2022/03/21 21:46:09;;;;;;;26.17;15.05;;;6.30;70.20;;;;;;6250582;22;20084;-84
2022/03/21 21:48:48;;;;;;;30.88;15.00;;;6.20;70.90;;;;;;6232786;22;20029;-83
2022/03/21 21:51:19;;;;;;;26.10;14.85;;;6.10;71.10;;;;;;6245621;22;20028;-84
2022/03/21 21:53:55;;;;;;;24.60;13.25;;;5.90;70.90;;;;;;6244185;22;20016;-83
2022/03/21 21:56:35;;;;;;;25.48;13.90;;;5.90;72.30;;;;;;6182027;23;20037;-83
2022/03/21 21:59:05;;;;;;;25.05;14.23;;;5.80;71.20;;;;;;6181055;23;20384;-83
2022/03/21 22:01:51;;;;;;;28.98;14.70;;;5.80;71.00;;;;;;6155825;23;20033;-83
2022/03/21 22:04:29;;;;;;;30.25;14.57;;;5.70;71.20;;;;;;6157493;23;20022;-83
2022/03/21 22:06:58;;;;;;;26.42;15.80;;;5.60;72.50;;;;;;6182291;23;20069;-84
2022/03/21 22:09:28;;;;;;;25.92;14.23;;;5.50;72.40;;;;;;6183141;23;20453;-83
2022/03/21 22:11:58;;;;;;;25.38;14.63;;;5.40;72.70;;;;;;6158478;23;20072;-83
2022/03/21 22:15:00;;;;;;;33.90;15.07;;;5.40;72.70;;;;;;6182857;23;20022;-84
2022/03/21 22:17:59;;;;;;;31.13;16.10;;;5.40;72.50;;;;;;6182694;23;20081;-84
2022/03/21 22:20:52;;;;;;;28.85;17.50;;;5.40;71.10;;;;;;6037019;23;20064;-83
2022/03/21 22:23:27;;;;;;;40.22;16.90;;;5.30;72.30;;;;;;6013128;23;20031;-83
2022/03/21 22:25:58;;;;;;;34.05;17.70;;;5.30;72.00;;;;;;6013064;23;20423;-83
2022/03/21 22:28:32;;;;;;;38.22;18.08;;;5.20;71.90;;;;;;6119141;23;20030;-83
2022/03/21 22:31:03;;;;;;;36.13;18.17;;;5.20;71.40;;;;;;6123981;23;20109;-83
2022/03/21 22:33:46;;;;;;;34.35;18.98;;;5.10;71.90;;;;;;6124162;23;20027;-84
2022/03/21 22:36:23;;;;;;;34.42;17.85;;;5.10;71.10;;;;;;6124786;23;20037;-82
2022/03/21 22:38:59;;;;;;;32.60;17.67;;;5.10;70.90;;;;;;6124207;23;20031;-82
2022/03/21 22:47:15;;;;;;;29.25;16.15;;;4.90;73.10;;;;;;6122447;23;20942;-83
2022/03/21 22:49:48;;;;;;;28.77;16.45;;;4.90;71.90;;;;;;6100112;23;20074;-83
2022/03/21 22:52:26;;;;;;;27.73;16.15;;;4.80;73.40;;;;;;6124741;23;20749;-83
2022/03/21 22:54:58;;;;;;;32.95;16.70;;;4.80;72.60;;;;;;6099748;23;20465;-83
2022/03/21 22:57:26;;;;;;;26.33;16.42;;;4.70;72.60;;;;;;6212741;22;20012;-83
2022/03/21 22:59:54;;;;;;;34.15;17.98;;;4.70;73.90;;;;;;6248258;22;20020;-83
